sensor_id;sensor_type;location;lat;lon;timestamp;P1;durP1;ratioP1;P2;durP2;ratioP2
65757;SDS011;52495;52.208;5.158;2022-07-23T00:01:18;3.80;;;1.95;;
65757;SDS011;52495;52.208;5.158;2022-07-23T00:03:45;2.80;;;1.90;;
65757;SDS011;52495;52.208;5.158;2022-07-23T00:06:13;2.53;;;1.85;;
65757;SDS011;52495;52.208;5.158;2022-07-23T00:08:40;4.75;;;2.13;;
65757;SDS011;52495;52.208;5.158;2022-07-23T00:11:07;4.15;;;1.98;;
65757;SDS011;52495;52.208;5.158;2022-07-23T00:13:33;5.13;;;2.40;;
65757;SDS011;52495;52.208;5.158;2022-07-23T00:16:01;3.72;;;1.90;;
65757;SDS011;52495;52.208;5.158;2022-07-23T00:18:28;7.78;;;2.33;;
65757;SDS011;52495;52.208;5.158;2022-07-23T00:20:55;3.22;;;1.75;;
65757;SDS011;52495;52.208;5.158;2022-07-23T00:23:23;5.85;;;2.50;;
65757;SDS011;52495;52.208;5.158;2022-07-23T00:25:51;4.63;;;1.83;;
65757;SDS011;52495;52.208;5.158;2022-07-23T00:28:18;2.17;;;1.80;;
65757;SDS011;52495;52.208;5.158;2022-07-23T00:30:45;3.38;;;1.67;;
65757;SDS011;52495;52.208;5.158;2022-07-23T00:33:12;4.80;;;1.98;;
65757;SDS011;52495;52.208;5.158;2022-07-23T00:35:40;4.97;;;2.28;;
65757;SDS011;52495;52.208;5.158;2022-07-23T00:38:07;5.03;;;2.35;;
65757;SDS011;52495;52.208;5.158;2022-07-23T00:40:37;3.55;;;1.98;;
65757;SDS011;52495;52.208;5.158;2022-07-23T00:43:05;5.97;;;1.90;;
65757;SDS011;52495;52.208;5.158;2022-07-23T00:45:31;3.05;;;1.80;;
65757;SDS011;52495;52.208;5.158;2022-07-23T00:47:59;3.63;;;1.90;;
65757;SDS011;52495;52.208;5.158;2022-07-23T00:50:26;3.90;;;1.80;;
65757;SDS011;52495;52.208;5.158;2022-07-23T00:52:54;3.13;;;1.77;;
65757;SDS011;52495;52.208;5.158;2022-07-23T00:55:22;1.90;;;1.63;;
65757;SDS011;52495;52.208;5.158;2022-07-23T00:57:50;4.15;;;1.80;;
65757;SDS011;52495;52.208;5.158;2022-07-23T01:00:20;3.90;;;2.17;;
65757;SDS011;52495;52.208;5.158;2022-07-23T01:02:48;3.25;;;1.77;;
65757;SDS011;52495;52.208;5.158;2022-07-23T01:05:15;3.97;;;2.00;;
65757;SDS011;52495;52.208;5.158;2022-07-23T01:07:47;3.92;;;1.95;;
65757;SDS011;52495;52.208;5.158;2022-07-23T01:10:14;2.97;;;1.95;;
65757;SDS011;52495;52.208;5.158;2022-07-23T01:13:03;4.13;;;2.00;;
65757;SDS011;52495;52.208;5.158;2022-07-23T01:15:31;3.50;;;1.85;;
65757;SDS011;52495;52.208;5.158;2022-07-23T01:17:59;3.63;;;1.95;;
65757;SDS011;52495;52.208;5.158;2022-07-23T01:20:27;6.00;;;2.40;;
65757;SDS011;52495;52.208;5.158;2022-07-23T01:22:55;2.83;;;2.00;;
65757;SDS011;52495;52.208;5.158;2022-07-23T01:25:22;2.47;;;1.73;;
65757;SDS011;52495;52.208;5.158;2022-07-23T01:28:01;2.90;;;1.80;;
65757;SDS011;52495;52.208;5.158;2022-07-23T01:30:28;3.22;;;1.90;;
65757;SDS011;52495;52.208;5.158;2022-07-23T01:32:56;3.22;;;1.98;;
65757;SDS011;52495;52.208;5.158;2022-07-23T01:35:23;4.75;;;2.15;;
65757;SDS011;52495;52.208;5.158;2022-07-23T01:37:52;3.72;;;1.90;;
65757;SDS011;52495;52.208;5.158;2022-07-23T01:40:22;2.97;;;1.90;;
65757;SDS011;52495;52.208;5.158;2022-07-23T01:42:49;4.03;;;2.15;;
65757;SDS011;52495;52.208;5.158;2022-07-23T01:45:16;3.35;;;2.13;;
65757;SDS011;52495;52.208;5.158;2022-07-23T01:47:48;4.72;;;2.00;;
65757;SDS011;52495;52.208;5.158;2022-07-23T01:50:15;4.18;;;2.17;;
65757;SDS011;52495;52.208;5.158;2022-07-23T01:53:02;4.78;;;2.30;;
65757;SDS011;52495;52.208;5.158;2022-07-23T01:55:31;3.17;;;1.75;;
65757;SDS011;52495;52.208;5.158;2022-07-23T01:57:58;2.13;;;1.73;;
65757;SDS011;52495;52.208;5.158;2022-07-23T02:00:28;3.80;;;1.80;;
65757;SDS011;52495;52.208;5.158;2022-07-23T02:02:55;3.13;;;1.85;;
65757;SDS011;52495;52.208;5.158;2022-07-23T02:05:23;4.15;;;2.03;;
65757;SDS011;52495;52.208;5.158;2022-07-23T02:07:50;2.70;;;1.70;;
65757;SDS011;52495;52.208;5.158;2022-07-23T02:10:17;3.22;;;1.58;;
65757;SDS011;52495;52.208;5.158;2022-07-23T02:12:46;3.38;;;1.45;;
65757;SDS011;52495;52.208;5.158;2022-07-23T02:15:12;3.00;;;2.00;;
65757;SDS011;52495;52.208;5.158;2022-07-23T02:17:40;2.10;;;1.70;;
65757;SDS011;52495;52.208;5.158;2022-07-23T02:20:07;3.40;;;2.00;;
65757;SDS011;52495;52.208;5.158;2022-07-23T02:22:36;4.05;;;1.83;;
65757;SDS011;52495;52.208;5.158;2022-07-23T02:25:03;3.63;;;1.90;;
65757;SDS011;52495;52.208;5.158;2022-07-23T02:27:31;4.63;;;2.22;;
65757;SDS011;52495;52.208;5.158;2022-07-23T02:29:59;2.97;;;1.80;;
65757;SDS011;52495;52.208;5.158;2022-07-23T02:32:27;3.97;;;2.10;;
65757;SDS011;52495;52.208;5.158;2022-07-23T02:34:54;2.80;;;1.77;;
65757;SDS011;52495;52.208;5.158;2022-07-23T02:37:21;3.30;;;1.90;;
65757;SDS011;52495;52.208;5.158;2022-07-23T02:39:48;2.42;;;1.67;;
65757;SDS011;52495;52.208;5.158;2022-07-23T02:42:15;2.90;;;1.88;;
65757;SDS011;52495;52.208;5.158;2022-07-23T02:44:43;2.33;;;1.45;;
65757;SDS011;52495;52.208;5.158;2022-07-23T02:47:11;2.70;;;1.83;;
65757;SDS011;52495;52.208;5.158;2022-07-23T02:49:38;2.53;;;1.60;;
65757;SDS011;52495;52.208;5.158;2022-07-23T02:52:05;3.88;;;1.65;;
65757;SDS011;52495;52.208;5.158;2022-07-23T02:54:32;2.95;;;1.80;;
65757;SDS011;52495;52.208;5.158;2022-07-23T02:56:59;2.90;;;1.88;;
65757;SDS011;52495;52.208;5.158;2022-07-23T02:59:25;2.00;;;1.63;;
65757;SDS011;52495;52.208;5.158;2022-07-23T03:01:52;6.55;;;2.13;;
65757;SDS011;52495;52.208;5.158;2022-07-23T03:04:20;2.42;;;1.80;;
65757;SDS011;52495;52.208;5.158;2022-07-23T03:06:47;2.67;;;2.03;;
65757;SDS011;52495;52.208;5.158;2022-07-23T03:09:14;3.40;;;2.42;;
65757;SDS011;52495;52.208;5.158;2022-07-23T03:11:40;3.30;;;1.70;;
65757;SDS011;52495;52.208;5.158;2022-07-23T03:14:07;2.92;;;1.85;;
65757;SDS011;52495;52.208;5.158;2022-07-23T03:16:38;2.75;;;2.00;;
65757;SDS011;52495;52.208;5.158;2022-07-23T03:19:05;3.65;;;1.63;;
65757;SDS011;52495;52.208;5.158;2022-07-23T03:21:33;3.28;;;2.00;;
65757;SDS011;52495;52.208;5.158;2022-07-23T03:24:04;3.40;;;2.07;;
65757;SDS011;52495;52.208;5.158;2022-07-23T03:26:31;3.45;;;2.10;;
65757;SDS011;52495;52.208;5.158;2022-07-23T03:28:57;2.45;;;1.80;;
65757;SDS011;52495;52.208;5.158;2022-07-23T03:31:26;2.20;;;1.77;;
65757;SDS011;52495;52.208;5.158;2022-07-23T03:33:53;3.05;;;1.80;;
65757;SDS011;52495;52.208;5.158;2022-07-23T03:36:19;3.13;;;2.03;;
65757;SDS011;52495;52.208;5.158;2022-07-23T03:38:47;3.85;;;2.03;;
65757;SDS011;52495;52.208;5.158;2022-07-23T03:41:15;3.60;;;2.30;;
65757;SDS011;52495;52.208;5.158;2022-07-23T03:43:43;3.85;;;2.00;;
65757;SDS011;52495;52.208;5.158;2022-07-23T03:46:10;3.10;;;1.88;;
65757;SDS011;52495;52.208;5.158;2022-07-23T03:48:37;2.97;;;1.90;;
65757;SDS011;52495;52.208;5.158;2022-07-23T03:51:04;3.28;;;1.88;;
65757;SDS011;52495;52.208;5.158;2022-07-23T03:53:31;3.83;;;2.00;;
65757;SDS011;52495;52.208;5.158;2022-07-23T03:56:01;7.68;;;1.90;;
65757;SDS011;52495;52.208;5.158;2022-07-23T03:58:29;2.35;;;1.75;;
65757;SDS011;52495;52.208;5.158;2022-07-23T04:00:56;3.17;;;1.52;;
65757;SDS011;52495;52.208;5.158;2022-07-23T04:03:22;3.30;;;1.85;;
65757;SDS011;52495;52.208;5.158;2022-07-23T04:05:49;3.20;;;1.90;;
65757;SDS011;52495;52.208;5.158;2022-07-23T04:08:16;3.10;;;2.00;;
65757;SDS011;52495;52.208;5.158;2022-07-23T04:10:48;4.63;;;2.00;;
65757;SDS011;52495;52.208;5.158;2022-07-23T04:13:16;3.95;;;2.45;;
65757;SDS011;52495;52.208;5.158;2022-07-23T04:15:42;5.47;;;3.33;;
65757;SDS011;52495;52.208;5.158;2022-07-23T04:18:09;7.07;;;3.17;;
65757;SDS011;52495;52.208;5.158;2022-07-23T04:20:53;4.43;;;2.90;;
65757;SDS011;52495;52.208;5.158;2022-07-23T04:23:20;3.55;;;2.08;;
65757;SDS011;52495;52.208;5.158;2022-07-23T04:25:47;3.97;;;2.30;;
65757;SDS011;52495;52.208;5.158;2022-07-23T04:28:14;8.30;;;3.10;;
65757;SDS011;52495;52.208;5.158;2022-07-23T04:30:42;3.80;;;2.70;;
65757;SDS011;52495;52.208;5.158;2022-07-23T04:33:10;4.15;;;2.30;;
65757;SDS011;52495;52.208;5.158;2022-07-23T04:35:38;4.53;;;2.28;;
65757;SDS011;52495;52.208;5.158;2022-07-23T04:38:15;3.35;;;2.30;;
65757;SDS011;52495;52.208;5.158;2022-07-23T04:40:42;3.40;;;2.38;;
65757;SDS011;52495;52.208;5.158;2022-07-23T04:43:09;4.50;;;2.40;;
65757;SDS011;52495;52.208;5.158;2022-07-23T04:45:44;5.05;;;2.40;;
65757;SDS011;52495;52.208;5.158;2022-07-23T04:48:11;2.75;;;2.05;;
65757;SDS011;52495;52.208;5.158;2022-07-23T04:50:37;2.35;;;2.10;;
65757;SDS011;52495;52.208;5.158;2022-07-23T04:53:04;4.45;;;2.40;;
65757;SDS011;52495;52.208;5.158;2022-07-23T04:55:32;3.70;;;2.50;;
65757;SDS011;52495;52.208;5.158;2022-07-23T04:57:58;3.40;;;2.25;;
65757;SDS011;52495;52.208;5.158;2022-07-23T05:00:25;3.38;;;2.05;;
65757;SDS011;52495;52.208;5.158;2022-07-23T05:02:54;3.55;;;2.10;;
65757;SDS011;52495;52.208;5.158;2022-07-23T05:05:21;2.85;;;2.05;;
65757;SDS011;52495;52.208;5.158;2022-07-23T05:07:49;3.50;;;2.38;;
65757;SDS011;52495;52.208;5.158;2022-07-23T05:10:16;2.50;;;1.90;;
65757;SDS011;52495;52.208;5.158;2022-07-23T05:12:43;2.97;;;2.20;;
65757;SDS011;52495;52.208;5.158;2022-07-23T05:15:10;2.50;;;1.83;;
65757;SDS011;52495;52.208;5.158;2022-07-23T05:17:37;2.72;;;1.90;;
65757;SDS011;52495;52.208;5.158;2022-07-23T05:20:11;5.93;;;2.17;;
65757;SDS011;52495;52.208;5.158;2022-07-23T05:22:39;4.53;;;1.70;;
65757;SDS011;52495;52.208;5.158;2022-07-23T05:25:06;6.82;;;2.33;;
65757;SDS011;52495;52.208;5.158;2022-07-23T05:27:33;4.05;;;2.20;;
65757;SDS011;52495;52.208;5.158;2022-07-23T05:30:00;4.03;;;2.30;;
65757;SDS011;52495;52.208;5.158;2022-07-23T05:32:31;2.47;;;1.90;;
65757;SDS011;52495;52.208;5.158;2022-07-23T05:35:06;6.13;;;2.28;;
65757;SDS011;52495;52.208;5.158;2022-07-23T05:37:39;3.55;;;2.10;;
65757;SDS011;52495;52.208;5.158;2022-07-23T05:40:07;3.55;;;2.03;;
65757;SDS011;52495;52.208;5.158;2022-07-23T05:42:36;2.63;;;1.80;;
65757;SDS011;52495;52.208;5.158;2022-07-23T05:45:04;3.75;;;1.88;;
65757;SDS011;52495;52.208;5.158;2022-07-23T05:47:39;8.05;;;2.55;;
65757;SDS011;52495;52.208;5.158;2022-07-23T05:50:07;5.05;;;1.80;;
65757;SDS011;52495;52.208;5.158;2022-07-23T05:52:47;5.82;;;2.03;;
65757;SDS011;52495;52.208;5.158;2022-07-23T05:55:29;3.03;;;1.52;;
65757;SDS011;52495;52.208;5.158;2022-07-23T05:57:57;4.97;;;1.80;;
65757;SDS011;52495;52.208;5.158;2022-07-23T06:00:26;4.63;;;1.70;;
65757;SDS011;52495;52.208;5.158;2022-07-23T06:02:54;3.85;;;2.00;;
65757;SDS011;52495;52.208;5.158;2022-07-23T06:05:21;2.63;;;1.60;;
65757;SDS011;52495;52.208;5.158;2022-07-23T06:07:49;3.67;;;1.38;;
65757;SDS011;52495;52.208;5.158;2022-07-23T06:10:16;5.45;;;1.70;;
65757;SDS011;52495;52.208;5.158;2022-07-23T06:12:43;5.28;;;1.20;;
65757;SDS011;52495;52.208;5.158;2022-07-23T06:15:09;2.58;;;1.20;;
65757;SDS011;52495;52.208;5.158;2022-07-23T06:17:36;6.30;;;1.60;;
65757;SDS011;52495;52.208;5.158;2022-07-23T06:20:04;2.95;;;1.30;;
65757;SDS011;52495;52.208;5.158;2022-07-23T06:22:32;2.80;;;1.30;;
65757;SDS011;52495;52.208;5.158;2022-07-23T06:25:00;3.10;;;1.70;;
65757;SDS011;52495;52.208;5.158;2022-07-23T06:27:28;4.07;;;1.33;;
65757;SDS011;52495;52.208;5.158;2022-07-23T06:29:54;3.28;;;1.10;;
65757;SDS011;52495;52.208;5.158;2022-07-23T06:32:21;6.47;;;1.35;;
65757;SDS011;52495;52.208;5.158;2022-07-23T06:34:48;2.75;;;1.40;;
65757;SDS011;52495;52.208;5.158;2022-07-23T06:37:15;2.97;;;1.15;;
65757;SDS011;52495;52.208;5.158;2022-07-23T06:39:41;3.63;;;1.40;;
65757;SDS011;52495;52.208;5.158;2022-07-23T06:42:10;4.47;;;1.27;;
65757;SDS011;52495;52.208;5.158;2022-07-23T06:44:42;3.40;;;1.60;;
65757;SDS011;52495;52.208;5.158;2022-07-23T06:47:09;3.85;;;1.40;;
65757;SDS011;52495;52.208;5.158;2022-07-23T06:49:35;3.28;;;1.42;;
65757;SDS011;52495;52.208;5.158;2022-07-23T06:52:02;3.33;;;1.50;;
65757;SDS011;52495;52.208;5.158;2022-07-23T06:54:32;3.13;;;1.27;;
65757;SDS011;52495;52.208;5.158;2022-07-23T06:56:59;3.33;;;1.10;;
65757;SDS011;52495;52.208;5.158;2022-07-23T06:59:28;2.28;;;1.38;;
65757;SDS011;52495;52.208;5.158;2022-07-23T07:01:54;1.10;;;0.85;;
65757;SDS011;52495;52.208;5.158;2022-07-23T07:04:22;5.38;;;1.30;;
65757;SDS011;52495;52.208;5.158;2022-07-23T07:06:49;2.75;;;1.10;;
65757;SDS011;52495;52.208;5.158;2022-07-23T07:09:16;4.47;;;1.42;;
65757;SDS011;52495;52.208;5.158;2022-07-23T07:11:43;1.65;;;0.85;;
65757;SDS011;52495;52.208;5.158;2022-07-23T07:14:09;1.73;;;0.95;;
65757;SDS011;52495;52.208;5.158;2022-07-23T07:16:38;1.65;;;1.02;;
65757;SDS011;52495;52.208;5.158;2022-07-23T07:19:04;2.50;;;1.05;;
65757;SDS011;52495;52.208;5.158;2022-07-23T07:21:31;2.25;;;1.00;;
65757;SDS011;52495;52.208;5.158;2022-07-23T07:23:58;2.65;;;1.05;;
65757;SDS011;52495;52.208;5.158;2022-07-23T07:26:24;2.38;;;1.17;;
65757;SDS011;52495;52.208;5.158;2022-07-23T07:28:51;2.35;;;1.23;;
65757;SDS011;52495;52.208;5.158;2022-07-23T07:31:17;2.38;;;1.20;;
65757;SDS011;52495;52.208;5.158;2022-07-23T07:33:45;2.42;;;1.08;;
65757;SDS011;52495;52.208;5.158;2022-07-23T07:36:13;2.80;;;0.95;;
65757;SDS011;52495;52.208;5.158;2022-07-23T07:38:39;4.75;;;1.30;;
65757;SDS011;52495;52.208;5.158;2022-07-23T07:41:06;3.80;;;1.42;;
65757;SDS011;52495;52.208;5.158;2022-07-23T07:43:35;1.77;;;1.00;;
65757;SDS011;52495;52.208;5.158;2022-07-23T07:46:01;4.85;;;1.40;;
65757;SDS011;52495;52.208;5.158;2022-07-23T07:48:28;1.70;;;0.73;;
65757;SDS011;52495;52.208;5.158;2022-07-23T07:50:56;3.30;;;1.15;;
65757;SDS011;52495;52.208;5.158;2022-07-23T07:53:24;2.22;;;0.90;;
65757;SDS011;52495;52.208;5.158;2022-07-23T07:55:50;1.08;;;0.88;;
65757;SDS011;52495;52.208;5.158;2022-07-23T07:58:17;4.13;;;1.17;;
65757;SDS011;52495;52.208;5.158;2022-07-23T08:00:44;2.72;;;1.02;;
65757;SDS011;52495;52.208;5.158;2022-07-23T08:03:11;2.97;;;1.13;;
65757;SDS011;52495;52.208;5.158;2022-07-23T08:05:37;3.15;;;1.00;;
65757;SDS011;52495;52.208;5.158;2022-07-23T08:08:06;1.77;;;0.90;;
65757;SDS011;52495;52.208;5.158;2022-07-23T08:10:35;2.25;;;1.02;;
65757;SDS011;52495;52.208;5.158;2022-07-23T08:13:02;3.25;;;1.30;;
65757;SDS011;52495;52.208;5.158;2022-07-23T08:15:29;1.48;;;1.00;;
65757;SDS011;52495;52.208;5.158;2022-07-23T08:17:56;3.63;;;1.05;;
65757;SDS011;52495;52.208;5.158;2022-07-23T08:20:25;3.20;;;0.90;;
65757;SDS011;52495;52.208;5.158;2022-07-23T08:22:53;3.33;;;0.77;;
65757;SDS011;52495;52.208;5.158;2022-07-23T08:25:23;1.77;;;0.70;;
65757;SDS011;52495;52.208;5.158;2022-07-23T08:27:51;2.50;;;0.88;;
65757;SDS011;52495;52.208;5.158;2022-07-23T08:30:18;0.88;;;0.68;;
65757;SDS011;52495;52.208;5.158;2022-07-23T08:32:52;1.58;;;0.95;;
65757;SDS011;52495;52.208;5.158;2022-07-23T08:35:25;1.58;;;1.00;;
65757;SDS011;52495;52.208;5.158;2022-07-23T08:37:53;1.90;;;0.80;;
65757;SDS011;52495;52.208;5.158;2022-07-23T08:40:22;4.88;;;1.23;;
65757;SDS011;52495;52.208;5.158;2022-07-23T08:42:50;2.33;;;1.00;;
65757;SDS011;52495;52.208;5.158;2022-07-23T08:45:17;4.53;;;1.13;;
65757;SDS011;52495;52.208;5.158;2022-07-23T08:47:47;2.67;;;0.98;;
65757;SDS011;52495;52.208;5.158;2022-07-23T08:50:16;2.40;;;0.85;;
65757;SDS011;52495;52.208;5.158;2022-07-23T08:52:43;4.13;;;1.10;;
65757;SDS011;52495;52.208;5.158;2022-07-23T08:55:09;2.38;;;0.90;;
65757;SDS011;52495;52.208;5.158;2022-07-23T08:57:38;1.60;;;1.10;;
65757;SDS011;52495;52.208;5.158;2022-07-23T09:00:05;1.65;;;0.95;;
65757;SDS011;52495;52.208;5.158;2022-07-23T09:02:38;3.22;;;1.10;;
65757;SDS011;52495;52.208;5.158;2022-07-23T09:05:07;2.75;;;1.08;;
65757;SDS011;52495;52.208;5.158;2022-07-23T09:07:35;2.22;;;0.90;;
65757;SDS011;52495;52.208;5.158;2022-07-23T09:10:06;3.65;;;1.20;;
65757;SDS011;52495;52.208;5.158;2022-07-23T09:12:34;2.13;;;0.85;;
65757;SDS011;52495;52.208;5.158;2022-07-23T09:15:07;2.17;;;0.90;;
65757;SDS011;52495;52.208;5.158;2022-07-23T09:17:39;1.98;;;0.80;;
65757;SDS011;52495;52.208;5.158;2022-07-23T09:20:07;3.42;;;0.90;;
65757;SDS011;52495;52.208;5.158;2022-07-23T09:22:36;2.08;;;0.85;;
65757;SDS011;52495;52.208;5.158;2022-07-23T09:25:04;2.33;;;0.80;;
65757;SDS011;52495;52.208;5.158;2022-07-23T09:27:45;3.03;;;1.17;;
65757;SDS011;52495;52.208;5.158;2022-07-23T09:30:16;3.28;;;1.13;;
65757;SDS011;52495;52.208;5.158;2022-07-23T09:32:43;4.22;;;0.82;;
65757;SDS011;52495;52.208;5.158;2022-07-23T09:35:09;2.33;;;0.85;;
65757;SDS011;52495;52.208;5.158;2022-07-23T09:37:36;2.63;;;1.13;;
65757;SDS011;52495;52.208;5.158;2022-07-23T09:40:04;4.75;;;1.23;;
65757;SDS011;52495;52.208;5.158;2022-07-23T09:42:32;1.50;;;1.00;;
65757;SDS011;52495;52.208;5.158;2022-07-23T09:44:59;3.08;;;1.10;;
65757;SDS011;52495;52.208;5.158;2022-07-23T09:47:27;2.08;;;0.95;;
65757;SDS011;52495;52.208;5.158;2022-07-23T09:49:59;2.55;;;1.10;;
65757;SDS011;52495;52.208;5.158;2022-07-23T09:52:27;2.38;;;0.85;;
65757;SDS011;52495;52.208;5.158;2022-07-23T09:54:59;2.80;;;1.58;;
65757;SDS011;52495;52.208;5.158;2022-07-23T09:57:28;1.52;;;0.70;;
65757;SDS011;52495;52.208;5.158;2022-07-23T09:59:56;1.33;;;0.77;;
65757;SDS011;52495;52.208;5.158;2022-07-23T10:02:28;1.42;;;1.10;;
65757;SDS011;52495;52.208;5.158;2022-07-23T10:05:16;2.65;;;1.02;;
65757;SDS011;52495;52.208;5.158;2022-07-23T10:08:02;2.35;;;1.23;;
65757;SDS011;52495;52.208;5.158;2022-07-23T10:10:48;2.83;;;1.15;;
65757;SDS011;52495;52.208;5.158;2022-07-23T10:13:37;1.55;;;0.75;;
65757;SDS011;52495;52.208;5.158;2022-07-23T10:16:27;3.58;;;1.15;;
65757;SDS011;52495;52.208;5.158;2022-07-23T10:18:55;1.85;;;1.05;;
65757;SDS011;52495;52.208;5.158;2022-07-23T10:21:24;1.73;;;1.02;;
65757;SDS011;52495;52.208;5.158;2022-07-23T10:23:58;2.38;;;0.82;;
65757;SDS011;52495;52.208;5.158;2022-07-23T10:26:36;1.77;;;1.00;;
65757;SDS011;52495;52.208;5.158;2022-07-23T10:29:12;2.42;;;0.98;;
65757;SDS011;52495;52.208;5.158;2022-07-23T10:31:50;3.10;;;0.90;;
65757;SDS011;52495;52.208;5.158;2022-07-23T10:34:25;3.67;;;1.10;;
65757;SDS011;52495;52.208;5.158;2022-07-23T10:37:04;2.50;;;1.20;;
65757;SDS011;52495;52.208;5.158;2022-07-23T10:39:39;2.72;;;1.15;;
65757;SDS011;52495;52.208;5.158;2022-07-23T10:42:09;2.15;;;1.13;;
65757;SDS011;52495;52.208;5.158;2022-07-23T10:44:40;2.55;;;1.48;;
65757;SDS011;52495;52.208;5.158;2022-07-23T10:47:08;4.45;;;1.08;;
65757;SDS011;52495;52.208;5.158;2022-07-23T10:49:54;1.67;;;1.00;;
65757;SDS011;52495;52.208;5.158;2022-07-23T10:55:39;2.35;;;1.00;;
65757;SDS011;52495;52.208;5.158;2022-07-23T10:58:08;1.88;;;1.00;;
65757;SDS011;52495;52.208;5.158;2022-07-23T11:00:35;4.03;;;1.20;;
65757;SDS011;52495;52.208;5.158;2022-07-23T11:03:04;2.38;;;1.08;;
65757;SDS011;52495;52.208;5.158;2022-07-23T11:05:52;1.23;;;0.90;;
65757;SDS011;52495;52.208;5.158;2022-07-23T11:08:19;1.88;;;1.20;;
65757;SDS011;52495;52.208;5.158;2022-07-23T11:10:47;1.35;;;1.17;;
65757;SDS011;52495;52.208;5.158;2022-07-23T11:16:08;2.90;;;1.05;;
65757;SDS011;52495;52.208;5.158;2022-07-23T11:18:58;3.38;;;1.27;;
65757;SDS011;52495;52.208;5.158;2022-07-23T11:21:43;2.83;;;1.38;;
65757;SDS011;52495;52.208;5.158;2022-07-23T11:24:17;2.58;;;1.10;;
65757;SDS011;52495;52.208;5.158;2022-07-23T11:26:46;1.63;;;1.10;;
65757;SDS011;52495;52.208;5.158;2022-07-23T11:29:37;2.22;;;1.27;;
65757;SDS011;52495;52.208;5.158;2022-07-23T11:32:08;4.10;;;1.30;;
65757;SDS011;52495;52.208;5.158;2022-07-23T11:34:45;2.45;;;1.33;;
65757;SDS011;52495;52.208;5.158;2022-07-23T11:37:26;3.08;;;1.08;;
65757;SDS011;52495;52.208;5.158;2022-07-23T11:39:55;2.85;;;1.60;;
65757;SDS011;52495;52.208;5.158;2022-07-23T11:42:24;3.35;;;1.27;;
65757;SDS011;52495;52.208;5.158;2022-07-23T11:44:51;2.28;;;1.30;;
65757;SDS011;52495;52.208;5.158;2022-07-23T11:47:21;1.98;;;1.13;;
65757;SDS011;52495;52.208;5.158;2022-07-23T11:49:52;1.63;;;0.95;;
65757;SDS011;52495;52.208;5.158;2022-07-23T11:52:20;2.58;;;1.13;;
65757;SDS011;52495;52.208;5.158;2022-07-23T11:54:49;3.20;;;1.30;;
65757;SDS011;52495;52.208;5.158;2022-07-23T11:57:18;2.60;;;1.30;;
65757;SDS011;52495;52.208;5.158;2022-07-23T11:59:46;2.08;;;1.40;;
65757;SDS011;52495;52.208;5.158;2022-07-23T12:02:15;4.70;;;1.40;;
65757;SDS011;52495;52.208;5.158;2022-07-23T12:04:43;1.58;;;1.17;;
65757;SDS011;52495;52.208;5.158;2022-07-23T12:09:59;1.73;;;1.20;;
65757;SDS011;52495;52.208;5.158;2022-07-23T12:12:29;4.95;;;1.48;;
65757;SDS011;52495;52.208;5.158;2022-07-23T12:15:01;2.50;;;1.52;;
65757;SDS011;52495;52.208;5.158;2022-07-23T12:17:29;3.03;;;1.40;;
65757;SDS011;52495;52.208;5.158;2022-07-23T12:19:58;3.03;;;1.73;;
65757;SDS011;52495;52.208;5.158;2022-07-23T12:22:26;3.83;;;1.50;;
65757;SDS011;52495;52.208;5.158;2022-07-23T12:25:03;2.58;;;1.50;;
65757;SDS011;52495;52.208;5.158;2022-07-23T12:27:32;2.75;;;1.63;;
65757;SDS011;52495;52.208;5.158;2022-07-23T12:30:14;3.38;;;1.33;;
65757;SDS011;52495;52.208;5.158;2022-07-23T12:32:45;2.90;;;1.70;;
65757;SDS011;52495;52.208;5.158;2022-07-23T12:35:12;2.38;;;1.55;;
65757;SDS011;52495;52.208;5.158;2022-07-23T12:37:40;4.63;;;1.75;;
65757;SDS011;52495;52.208;5.158;2022-07-23T12:40:25;3.58;;;1.75;;
65757;SDS011;52495;52.208;5.158;2022-07-23T12:42:54;3.08;;;1.42;;
65757;SDS011;52495;52.208;5.158;2022-07-23T12:45:23;2.85;;;1.55;;
65757;SDS011;52495;52.208;5.158;2022-07-23T12:47:58;3.72;;;1.80;;
65757;SDS011;52495;52.208;5.158;2022-07-23T12:50:42;4.63;;;1.88;;
65757;SDS011;52495;52.208;5.158;2022-07-23T12:53:12;3.97;;;2.10;;
65757;SDS011;52495;52.208;5.158;2022-07-23T12:55:42;2.65;;;1.70;;
65757;SDS011;52495;52.208;5.158;2022-07-23T12:58:13;2.40;;;1.60;;
65757;SDS011;52495;52.208;5.158;2022-07-23T13:00:55;2.50;;;1.48;;
65757;SDS011;52495;52.208;5.158;2022-07-23T13:03:28;2.40;;;1.60;;
65757;SDS011;52495;52.208;5.158;2022-07-23T13:05:57;2.50;;;1.90;;
65757;SDS011;52495;52.208;5.158;2022-07-23T13:08:26;3.40;;;1.90;;
65757;SDS011;52495;52.208;5.158;2022-07-23T13:10:55;2.75;;;1.85;;
65757;SDS011;52495;52.208;5.158;2022-07-23T13:13:23;3.83;;;2.20;;
65757;SDS011;52495;52.208;5.158;2022-07-23T13:15:51;3.72;;;2.00;;
65757;SDS011;52495;52.208;5.158;2022-07-23T13:18:18;3.70;;;1.90;;
65757;SDS011;52495;52.208;5.158;2022-07-23T13:20:45;4.00;;;2.17;;
65757;SDS011;52495;52.208;5.158;2022-07-23T13:23:13;2.90;;;2.08;;
65757;SDS011;52495;52.208;5.158;2022-07-23T13:25:41;2.50;;;1.70;;
65757;SDS011;52495;52.208;5.158;2022-07-23T13:28:10;2.70;;;1.88;;
65757;SDS011;52495;52.208;5.158;2022-07-23T13:30:37;4.05;;;2.13;;
65757;SDS011;52495;52.208;5.158;2022-07-23T13:33:04;3.28;;;2.10;;
65757;SDS011;52495;52.208;5.158;2022-07-23T13:35:31;3.17;;;2.10;;
65757;SDS011;52495;52.208;5.158;2022-07-23T13:37:58;3.05;;;2.20;;
65757;SDS011;52495;52.208;5.158;2022-07-23T13:40:25;3.58;;;2.30;;
65757;SDS011;52495;52.208;5.158;2022-07-23T13:42:52;2.53;;;1.88;;
65757;SDS011;52495;52.208;5.158;2022-07-23T13:45:20;4.05;;;2.10;;
65757;SDS011;52495;52.208;5.158;2022-07-23T13:47:47;4.18;;;2.00;;
65757;SDS011;52495;52.208;5.158;2022-07-23T13:50:14;3.90;;;2.30;;
65757;SDS011;52495;52.208;5.158;2022-07-23T13:52:42;3.45;;;2.10;;
65757;SDS011;52495;52.208;5.158;2022-07-23T13:55:09;4.82;;;2.00;;
65757;SDS011;52495;52.208;5.158;2022-07-23T13:57:36;4.35;;;2.05;;
65757;SDS011;52495;52.208;5.158;2022-07-23T14:00:04;5.10;;;2.03;;
65757;SDS011;52495;52.208;5.158;2022-07-23T14:02:35;4.30;;;2.25;;
65757;SDS011;52495;52.208;5.158;2022-07-23T14:05:03;3.97;;;2.20;;
65757;SDS011;52495;52.208;5.158;2022-07-23T14:07:30;6.13;;;2.50;;
65757;SDS011;52495;52.208;5.158;2022-07-23T14:09:57;4.13;;;2.08;;
65757;SDS011;52495;52.208;5.158;2022-07-23T14:12:24;4.45;;;2.40;;
65757;SDS011;52495;52.208;5.158;2022-07-23T14:14:51;5.00;;;2.38;;
65757;SDS011;52495;52.208;5.158;2022-07-23T14:17:18;4.13;;;2.15;;
65757;SDS011;52495;52.208;5.158;2022-07-23T14:19:46;2.95;;;1.90;;
65757;SDS011;52495;52.208;5.158;2022-07-23T14:22:13;3.10;;;2.00;;
65757;SDS011;52495;52.208;5.158;2022-07-23T14:24:39;3.92;;;1.98;;
65757;SDS011;52495;52.208;5.158;2022-07-23T14:27:06;5.28;;;2.13;;
65757;SDS011;52495;52.208;5.158;2022-07-23T14:29:34;5.20;;;2.30;;
65757;SDS011;52495;52.208;5.158;2022-07-23T14:32:01;5.22;;;2.92;;
65757;SDS011;52495;52.208;5.158;2022-07-23T14:34:28;4.03;;;2.80;;
65757;SDS011;52495;52.208;5.158;2022-07-23T14:36:56;4.03;;;2.42;;
65757;SDS011;52495;52.208;5.158;2022-07-23T14:39:23;3.97;;;2.10;;
65757;SDS011;52495;52.208;5.158;2022-07-23T14:41:50;3.38;;;1.90;;
65757;SDS011;52495;52.208;5.158;2022-07-23T14:44:17;3.28;;;2.00;;
65757;SDS011;52495;52.208;5.158;2022-07-23T14:46:44;2.35;;;1.77;;
65757;SDS011;52495;52.208;5.158;2022-07-23T14:49:11;3.75;;;2.00;;
65757;SDS011;52495;52.208;5.158;2022-07-23T14:51:37;3.50;;;2.30;;
65757;SDS011;52495;52.208;5.158;2022-07-23T14:54:08;5.13;;;2.35;;
65757;SDS011;52495;52.208;5.158;2022-07-23T14:56:35;3.75;;;2.00;;
65757;SDS011;52495;52.208;5.158;2022-07-23T14:59:02;3.75;;;2.38;;
65757;SDS011;52495;52.208;5.158;2022-07-23T15:01:29;4.35;;;2.63;;
65757;SDS011;52495;52.208;5.158;2022-07-23T15:03:56;3.88;;;2.03;;
65757;SDS011;52495;52.208;5.158;2022-07-23T15:06:23;4.65;;;2.63;;
65757;SDS011;52495;52.208;5.158;2022-07-23T15:08:50;3.72;;;2.00;;